createdAt,value
2023-08-20T00:00:00.917Z,18.76
2023-08-20T00:00:21.086Z,18.75
2023-08-20T00:00:26.157Z,18.74
2023-08-20T00:00:31.241Z,18.75
2023-08-20T00:00:36.316Z,18.75
2023-08-20T00:00:41.391Z,18.76
2023-08-20T00:01:01.601Z,18.72
2023-08-20T00:01:21.778Z,18.71
2023-08-20T00:01:27.629Z,18.69
2023-08-20T00:01:32.764Z,18.74
2023-08-20T00:01:37.836Z,18.72
2023-08-20T00:01:42.917Z,18.74
2023-08-20T00:02:03.264Z,18.72
2023-08-20T00:02:23.481Z,18.71
2023-08-20T00:02:28.580Z,18.68
2023-08-20T00:02:33.656Z,18.69
2023-08-20T00:02:38.756Z,18.68
2023-08-20T00:02:43.846Z,18.68
2023-08-20T00:03:04.118Z,18.68
2023-08-20T00:03:24.334Z,18.68
2023-08-20T00:03:29.420Z,18.65
2023-08-20T00:03:34.515Z,18.69
2023-08-20T00:03:39.634Z,18.69
2023-08-20T00:03:44.779Z,18.71
2023-08-20T00:04:05.115Z,18.68
2023-08-20T00:04:25.279Z,18.68
2023-08-20T00:04:30.341Z,18.66
2023-08-20T00:04:35.416Z,18.65
2023-08-20T00:04:40.483Z,18.66
2023-08-20T00:04:45.557Z,18.68
2023-08-20T00:05:05.754Z,18.65
2023-08-20T00:05:25.910Z,18.66
2023-08-20T00:05:30.989Z,18.65
2023-08-20T00:05:36.060Z,18.68
2023-08-20T00:05:41.130Z,18.68
2023-08-20T00:05:46.207Z,18.68
2023-08-20T00:06:06.378Z,18.64
2023-08-20T00:06:26.558Z,18.65
2023-08-20T00:06:31.642Z,18.69
2023-08-20T00:06:36.744Z,18.66
2023-08-20T00:06:41.809Z,18.66
2023-08-20T00:06:46.878Z,18.64
2023-08-20T00:07:07.143Z,18.66
2023-08-20T00:07:27.318Z,18.64
2023-08-20T00:07:32.514Z,18.66
2023-08-20T00:07:37.789Z,18.64
2023-08-20T00:07:43.020Z,18.64
2023-08-20T00:07:48.101Z,18.64
2023-08-20T00:08:08.283Z,18.64
2023-08-20T00:08:28.453Z,18.65
2023-08-20T00:08:33.519Z,18.62
2023-08-20T00:08:38.591Z,18.65
2023-08-20T00:08:43.671Z,18.65
2023-08-20T00:08:48.748Z,18.68
2023-08-20T00:09:08.929Z,18.62
2023-08-20T00:09:29.139Z,18.62
2023-08-20T00:09:34.226Z,18.64
2023-08-20T00:09:39.277Z,18.62
2023-08-20T00:09:44.365Z,18.64
2023-08-20T00:09:49.428Z,18.62
2023-08-20T00:10:09.586Z,18.64
2023-08-20T00:10:29.825Z,18.64
2023-08-20T00:10:34.892Z,18.64
2023-08-20T00:10:39.970Z,18.64
2023-08-20T00:10:45.028Z,18.66
2023-08-20T00:10:50.113Z,18.59
2023-08-20T00:11:10.365Z,18.62
2023-08-20T00:11:30.537Z,18.64
2023-08-20T00:11:35.600Z,18.62
2023-08-20T00:11:40.678Z,18.62
2023-08-20T00:11:45.749Z,18.60
2023-08-20T00:11:50.848Z,18.62
2023-08-20T00:12:11.027Z,18.62
2023-08-20T00:12:31.188Z,18.64
2023-08-20T00:12:36.266Z,18.60
2023-08-20T00:12:41.336Z,18.59
2023-08-20T00:12:46.409Z,18.60
2023-08-20T00:12:51.498Z,18.60
2023-08-20T00:13:11.726Z,18.60
2023-08-20T00:13:31.972Z,18.62
2023-08-20T00:13:37.046Z,18.60
2023-08-20T00:13:42.126Z,18.62
2023-08-20T00:13:47.187Z,18.62
2023-08-20T00:13:52.284Z,18.60
2023-08-20T00:14:12.467Z,18.60
2023-08-20T00:14:32.683Z,18.59
2023-08-20T00:14:37.744Z,18.57
2023-08-20T00:14:42.819Z,18.57
2023-08-20T00:14:47.885Z,18.60
2023-08-20T00:14:52.976Z,18.59
2023-08-20T00:15:13.144Z,18.62
2023-08-20T00:15:33.311Z,18.54
2023-08-20T00:15:38.384Z,18.60
2023-08-20T00:15:43.576Z,18.59
2023-08-20T00:15:48.730Z,18.57
2023-08-20T00:15:53.819Z,18.60
2023-08-20T00:16:14.103Z,18.60
2023-08-20T00:16:34.417Z,18.59
2023-08-20T00:16:39.492Z,18.56
2023-08-20T00:16:44.558Z,18.56
2023-08-20T00:16:49.659Z,18.57
2023-08-20T00:16:54.705Z,18.56
2023-08-20T00:17:14.863Z,18.59
2023-08-20T00:17:35.323Z,18.57
2023-08-20T00:17:40.644Z,18.56
2023-08-20T00:17:45.774Z,18.56
2023-08-20T00:17:50.886Z,18.56
2023-08-20T00:17:55.990Z,18.54
2023-08-20T00:18:16.206Z,18.59
2023-08-20T00:18:39.124Z,18.54
2023-08-20T00:18:44.393Z,18.56
2023-08-20T00:18:49.471Z,18.62
2023-08-20T00:18:54.566Z,18.56
2023-08-20T00:18:59.645Z,18.54
2023-08-20T00:19:19.817Z,18.54
2023-08-20T00:19:40.006Z,18.53
2023-08-20T00:19:45.069Z,18.56
2023-08-20T00:19:50.147Z,18.54
2023-08-20T00:19:55.226Z,18.54
2023-08-20T00:20:00.306Z,18.56
2023-08-20T00:20:20.474Z,18.54
2023-08-20T00:20:40.659Z,18.54
2023-08-20T00:20:45.742Z,18.57
2023-08-20T00:20:50.801Z,18.53
2023-08-20T00:20:55.883Z,18.56
2023-08-20T00:21:00.950Z,18.54
2023-08-20T00:21:21.138Z,18.54
2023-08-20T00:21:41.367Z,18.56
2023-08-20T00:21:46.459Z,18.54
2023-08-20T00:21:51.510Z,18.59
2023-08-20T00:21:56.590Z,18.56
2023-08-20T00:22:01.666Z,18.56
2023-08-20T00:22:21.925Z,18.56
2023-08-20T00:22:42.217Z,18.51
2023-08-20T00:22:47.308Z,18.56
2023-08-20T00:22:52.373Z,18.53
2023-08-20T00:22:57.450Z,18.54
2023-08-20T00:23:02.520Z,18.53
2023-08-20T00:23:22.692Z,18.54
2023-08-20T00:23:42.906Z,18.54
2023-08-20T00:23:47.975Z,18.51
2023-08-20T00:23:53.219Z,18.53
2023-08-20T00:23:58.291Z,18.51
2023-08-20T00:24:03.367Z,18.53
2023-08-20T00:24:23.563Z,18.51
2023-08-20T00:24:43.729Z,18.51
2023-08-20T00:24:48.807Z,18.50
2023-08-20T00:24:53.883Z,18.51
2023-08-20T00:24:58.969Z,18.51
2023-08-20T00:25:04.062Z,18.53
2023-08-20T00:25:24.230Z,18.49
2023-08-20T00:25:44.401Z,18.50
2023-08-20T00:25:49.494Z,18.50
2023-08-20T00:25:54.603Z,18.49
2023-08-20T00:25:59.768Z,18.47
2023-08-20T00:26:04.926Z,18.49
2023-08-20T00:26:25.139Z,18.49
2023-08-20T00:26:45.312Z,18.47
2023-08-20T00:26:50.391Z,18.46
2023-08-20T00:26:55.470Z,18.47
2023-08-20T00:27:00.575Z,18.49
2023-08-20T00:27:05.656Z,18.49
2023-08-20T00:27:25.821Z,18.46
2023-08-20T00:27:46.036Z,18.49
2023-08-20T00:27:51.104Z,18.47
2023-08-20T00:27:56.280Z,18.42
2023-08-20T00:28:01.366Z,18.47
2023-08-20T00:28:06.432Z,18.47
2023-08-20T00:28:26.586Z,18.46
2023-08-20T00:28:46.760Z,18.47
2023-08-20T00:28:51.827Z,18.46
2023-08-20T00:28:57.618Z,18.47
2023-08-20T00:29:02.687Z,18.46
2023-08-20T00:29:07.823Z,18.49
2023-08-20T00:29:27.998Z,18.47
2023-08-20T00:29:48.187Z,18.47
2023-08-20T00:29:53.260Z,18.49
2023-08-20T00:29:58.329Z,18.44
2023-08-20T00:30:03.404Z,18.44
2023-08-20T00:30:08.484Z,18.47
2023-08-20T00:30:28.674Z,18.44
2023-08-20T00:30:48.849Z,18.47
2023-08-20T00:30:53.918Z,18.42
2023-08-20T00:30:58.997Z,18.42
2023-08-20T00:31:04.063Z,18.44
2023-08-20T00:31:09.213Z,18.44
2023-08-20T00:31:29.520Z,18.46
2023-08-20T00:31:49.703Z,18.44
2023-08-20T00:31:54.781Z,18.46
2023-08-20T00:31:59.837Z,18.44
2023-08-20T00:32:04.914Z,18.47
2023-08-20T00:32:09.982Z,18.46
2023-08-20T00:32:30.202Z,18.46
2023-08-20T00:32:50.669Z,18.42
2023-08-20T00:32:55.778Z,18.44
2023-08-20T00:33:00.870Z,18.46
2023-08-20T00:33:05.950Z,18.46
2023-08-20T00:33:11.047Z,18.42
2023-08-20T00:33:31.274Z,18.42
2023-08-20T00:34:04.819Z,18.44
2023-08-20T00:34:11.975Z,18.44
2023-08-20T00:34:17.066Z,18.47
2023-08-20T00:34:22.149Z,18.44
2023-08-20T00:34:27.216Z,18.42
2023-08-20T00:34:32.310Z,18.47
2023-08-20T00:34:52.551Z,18.44
2023-08-20T00:35:12.794Z,18.46
2023-08-20T00:35:17.854Z,18.39
2023-08-20T00:35:22.925Z,18.42
2023-08-20T00:35:27.988Z,18.44
2023-08-20T00:35:33.057Z,18.41
2023-08-20T00:35:53.258Z,18.41
2023-08-20T00:36:13.472Z,18.44
2023-08-20T00:36:18.528Z,18.46
2023-08-20T00:36:23.879Z,18.42
2023-08-20T00:36:28.950Z,18.47
2023-08-20T00:36:34.018Z,18.42
2023-08-20T00:36:54.379Z,18.44
2023-08-20T00:37:14.581Z,18.42
2023-08-20T00:37:19.665Z,18.39
2023-08-20T00:37:24.730Z,18.41
2023-08-20T00:37:29.791Z,18.36
2023-08-20T00:37:35.175Z,18.42
2023-08-20T00:37:55.509Z,18.38
2023-08-20T00:38:15.691Z,18.39
2023-08-20T00:38:20.786Z,18.39
2023-08-20T00:38:25.840Z,18.36
2023-08-20T00:38:30.908Z,18.36
2023-08-20T00:38:35.985Z,18.38
2023-08-20T00:38:56.149Z,18.38
2023-08-20T00:39:16.367Z,18.35
2023-08-20T00:39:21.430Z,18.34
2023-08-20T00:39:26.490Z,18.35
2023-08-20T00:39:31.555Z,18.31
2023-08-20T00:39:36.631Z,18.35
2023-08-20T00:39:57.596Z,18.34
2023-08-20T00:40:17.820Z,18.32
2023-08-20T00:40:22.870Z,18.34
2023-08-20T00:40:27.957Z,18.35
2023-08-20T00:40:33.023Z,18.34
2023-08-20T00:40:38.092Z,18.32
2023-08-20T00:40:58.261Z,18.31
2023-08-20T00:41:18.449Z,18.32
2023-08-20T00:41:23.502Z,18.35
2023-08-20T00:41:28.573Z,18.31
2023-08-20T00:41:33.636Z,18.29
2023-08-20T00:41:38.699Z,18.31
2023-08-20T00:41:58.859Z,18.32
2023-08-20T00:42:19.088Z,18.32
2023-08-20T00:42:24.147Z,18.32
2023-08-20T00:42:29.217Z,18.34
2023-08-20T00:42:34.296Z,18.32
2023-08-20T00:42:39.366Z,18.31
2023-08-20T00:42:59.609Z,18.31
2023-08-20T00:43:19.858Z,18.34
2023-08-20T00:43:24.939Z,18.32
2023-08-20T00:43:30.004Z,18.35
2023-08-20T00:43:35.086Z,18.32
2023-08-20T00:43:40.160Z,18.32
2023-08-20T00:44:00.328Z,18.31
2023-08-20T00:44:20.522Z,18.34
2023-08-20T00:44:25.591Z,18.29
2023-08-20T00:44:30.682Z,18.31
2023-08-20T00:44:35.740Z,18.31
2023-08-20T00:44:40.813Z,18.31
2023-08-20T00:45:01.019Z,18.32
2023-08-20T00:45:21.241Z,18.32
2023-08-20T00:45:26.328Z,18.31
2023-08-20T00:45:31.460Z,18.34
2023-08-20T00:45:36.552Z,18.31
2023-08-20T00:45:41.673Z,18.31
2023-08-20T00:46:02.645Z,18.31
2023-08-20T00:46:22.826Z,18.29
2023-08-20T00:46:27.898Z,18.34
2023-08-20T00:46:32.965Z,18.34
2023-08-20T00:46:38.039Z,18.29
2023-08-20T00:46:43.104Z,18.31
2023-08-20T00:47:03.285Z,18.34
2023-08-20T00:47:23.468Z,18.35
2023-08-20T00:47:28.590Z,18.32
2023-08-20T00:47:34.036Z,18.32
2023-08-20T00:47:39.805Z,18.32
2023-08-20T00:47:45.202Z,18.34
2023-08-20T00:48:05.410Z,18.32
2023-08-20T00:48:25.608Z,18.32
2023-08-20T00:48:30.680Z,18.31
2023-08-20T00:48:35.747Z,18.32
2023-08-20T00:48:40.824Z,18.34
2023-08-20T00:48:45.872Z,18.32
2023-08-20T00:49:06.033Z,18.31
2023-08-20T00:49:26.226Z,18.32
2023-08-20T00:49:31.317Z,18.36
2023-08-20T00:49:36.396Z,18.35
2023-08-20T00:49:41.471Z,18.32
2023-08-20T00:49:46.542Z,18.31
2023-08-20T00:50:06.734Z,18.32
2023-08-20T00:50:26.982Z,18.29
2023-08-20T00:50:32.062Z,18.32
2023-08-20T00:50:37.143Z,18.31
2023-08-20T00:50:42.212Z,18.34
2023-08-20T00:50:47.308Z,18.32
2023-08-20T00:51:07.451Z,18.35
2023-08-20T00:51:27.605Z,18.35
2023-08-20T00:51:32.676Z,18.32
2023-08-20T00:51:37.745Z,18.31
2023-08-20T00:51:42.811Z,18.34
2023-08-20T00:51:47.891Z,18.32
2023-08-20T00:52:08.070Z,18.38
2023-08-20T00:52:28.336Z,18.31
2023-08-20T00:52:33.407Z,18.35
2023-08-20T00:52:38.502Z,18.34
2023-08-20T00:52:43.570Z,18.32
2023-08-20T00:52:48.630Z,18.31
2023-08-20T00:53:08.877Z,18.32
2023-08-20T00:53:29.059Z,18.32
2023-08-20T00:53:34.133Z,18.31
2023-08-20T00:53:39.215Z,18.31
2023-08-20T00:53:44.280Z,18.31
2023-08-20T00:53:49.347Z,18.32
2023-08-20T00:54:09.508Z,18.29
2023-08-20T00:54:29.673Z,18.35
2023-08-20T00:54:34.764Z,18.32
2023-08-20T00:54:39.834Z,18.32
2023-08-20T00:54:44.909Z,18.28
2023-08-20T00:54:49.979Z,18.31
2023-08-20T00:55:10.162Z,18.31
2023-08-20T00:55:30.360Z,18.32
2023-08-20T00:55:35.439Z,18.31
2023-08-20T00:55:40.521Z,18.31
2023-08-20T00:55:45.602Z,18.35
2023-08-20T00:55:50.656Z,18.32
2023-08-20T00:56:10.822Z,18.32
2023-08-20T00:56:30.999Z,18.31
2023-08-20T00:56:36.077Z,18.31
2023-08-20T00:56:41.139Z,18.31
2023-08-20T00:56:46.219Z,18.31
2023-08-20T00:56:51.295Z,18.32
2023-08-20T00:57:11.467Z,18.32
2023-08-20T00:57:31.691Z,18.28
2023-08-20T00:57:36.977Z,18.34
2023-08-20T00:57:42.246Z,18.32
2023-08-20T00:57:47.322Z,18.31
2023-08-20T00:57:52.388Z,18.29
2023-08-20T00:58:12.670Z,18.35
2023-08-20T00:58:32.808Z,18.29
2023-08-20T00:58:37.899Z,18.31
2023-08-20T00:58:42.963Z,18.31
2023-08-20T00:58:48.030Z,18.29
2023-08-20T00:58:53.811Z,18.29
2023-08-20T00:59:13.984Z,18.28
2023-08-20T00:59:34.162Z,18.31
2023-08-20T00:59:39.252Z,18.32
2023-08-20T00:59:44.369Z,18.32
2023-08-20T00:59:49.426Z,18.28
2023-08-20T00:59:54.509Z,18.26
2023-08-20T01:00:14.744Z,18.28
2023-08-20T01:00:34.936Z,18.28
2023-08-20T01:00:40.013Z,18.26
2023-08-20T01:00:45.089Z,18.25
2023-08-20T01:00:50.179Z,18.29
2023-08-20T01:00:55.302Z,18.28
2023-08-20T01:01:15.561Z,18.28
2023-08-20T01:01:35.790Z,18.28
2023-08-20T01:01:40.869Z,18.25
2023-08-20T01:01:45.925Z,18.25
2023-08-20T01:01:51.004Z,18.26
2023-08-20T01:01:56.078Z,18.29
2023-08-20T01:02:16.264Z,18.25
2023-08-20T01:02:36.502Z,18.25
2023-08-20T01:02:41.581Z,18.25
2023-08-20T01:02:48.464Z,18.23
2023-08-20T01:02:53.761Z,18.26
2023-08-20T01:02:58.871Z,18.29
2023-08-20T01:03:19.234Z,18.25
2023-08-20T01:03:39.422Z,18.23
2023-08-20T01:03:44.509Z,18.23
2023-08-20T01:03:49.600Z,18.21
2023-08-20T01:03:54.649Z,18.21
2023-08-20T01:03:59.721Z,18.20
2023-08-20T01:04:19.990Z,18.23
2023-08-20T01:04:40.363Z,18.21
2023-08-20T01:04:45.489Z,18.21
2023-08-20T01:04:50.625Z,18.23
2023-08-20T01:04:55.752Z,18.21
2023-08-20T01:05:00.844Z,18.23
2023-08-20T01:05:21.029Z,18.23
2023-08-20T01:05:41.221Z,18.25
2023-08-20T01:05:46.296Z,18.21
2023-08-20T01:05:51.380Z,18.21
2023-08-20T01:05:56.449Z,18.21
2023-08-20T01:06:01.520Z,18.21
2023-08-20T01:06:21.739Z,18.20
2023-08-20T01:06:42.006Z,18.21
2023-08-20T01:06:47.091Z,18.23
2023-08-20T01:06:52.166Z,18.21
2023-08-20T01:06:57.236Z,18.25
2023-08-20T01:07:02.311Z,18.21
2023-08-20T01:07:22.473Z,18.23
2023-08-20T01:07:42.628Z,18.23
2023-08-20T01:07:47.717Z,18.23
2023-08-20T01:07:52.818Z,18.26
2023-08-20T01:07:57.880Z,18.26
2023-08-20T01:08:02.964Z,18.25
2023-08-20T01:08:23.812Z,18.23
2023-08-20T01:08:43.988Z,18.21
2023-08-20T01:08:49.081Z,18.20
2023-08-20T01:08:54.148Z,18.20
2023-08-20T01:08:59.228Z,18.25
2023-08-20T01:09:04.301Z,18.20
2023-08-20T01:09:24.447Z,18.25
2023-08-20T01:09:44.631Z,18.20
2023-08-20T01:09:49.705Z,18.23
2023-08-20T01:09:55.096Z,18.20
2023-08-20T01:10:00.175Z,18.20
2023-08-20T01:10:05.229Z,18.21
2023-08-20T01:10:25.418Z,18.21
2023-08-20T01:10:45.596Z,18.21
2023-08-20T01:10:50.654Z,18.21
2023-08-20T01:10:55.724Z,18.26
2023-08-20T01:11:00.826Z,18.21
2023-08-20T01:11:05.892Z,18.20
2023-08-20T01:11:26.080Z,18.21
2023-08-20T01:11:46.242Z,18.21
2023-08-20T01:11:51.304Z,18.23
2023-08-20T01:11:56.411Z,18.21
2023-08-20T01:12:01.472Z,18.17
2023-08-20T01:12:06.546Z,18.20
2023-08-20T01:12:26.771Z,18.21
2023-08-20T01:12:46.957Z,18.25
2023-08-20T01:12:52.028Z,18.21
2023-08-20T01:12:57.132Z,18.23
2023-08-20T01:13:02.213Z,18.23
2023-08-20T01:13:07.301Z,18.23
2023-08-20T01:13:27.504Z,18.23
2023-08-20T01:13:47.814Z,18.19
2023-08-20T01:13:52.873Z,18.21
2023-08-20T01:13:57.943Z,18.21
2023-08-20T01:14:03.036Z,18.23
2023-08-20T01:14:08.095Z,18.21
2023-08-20T01:14:28.276Z,18.23
2023-08-20T01:14:48.454Z,18.23
2023-08-20T01:14:53.514Z,18.23
2023-08-20T01:14:58.606Z,18.21
2023-08-20T01:15:03.686Z,18.23
2023-08-20T01:15:08.750Z,18.23
2023-08-20T01:15:29.053Z,18.23
2023-08-20T01:15:49.274Z,18.23
2023-08-20T01:15:54.412Z,18.21
2023-08-20T01:15:59.545Z,18.20
2023-08-20T01:16:04.645Z,18.20
2023-08-20T01:16:09.754Z,18.21
2023-08-20T01:16:29.911Z,18.21
2023-08-20T01:16:50.135Z,18.20
2023-08-20T01:16:55.201Z,18.21
2023-08-20T01:17:00.291Z,18.25
2023-08-20T01:17:05.343Z,18.21
2023-08-20T01:17:10.432Z,18.23
2023-08-20T01:17:30.781Z,18.20
2023-08-20T01:17:51.076Z,18.19
2023-08-20T01:17:56.203Z,18.19
2023-08-20T01:18:01.341Z,18.21
2023-08-20T01:18:06.468Z,18.21
2023-08-20T01:18:11.545Z,18.21
2023-08-20T01:18:31.728Z,18.16
2023-08-20T01:18:51.894Z,18.20
2023-08-20T01:18:57.699Z,18.17
2023-08-20T01:19:02.776Z,18.19
2023-08-20T01:19:07.849Z,18.19
2023-08-20T01:19:12.913Z,18.16
2023-08-20T01:19:33.215Z,18.19
2023-08-20T01:19:53.433Z,18.14
2023-08-20T01:19:58.493Z,18.17
2023-08-20T01:20:03.573Z,18.17
2023-08-20T01:20:08.666Z,18.17
2023-08-20T01:20:13.782Z,18.14
2023-08-20T01:20:33.978Z,18.13
2023-08-20T01:20:54.202Z,18.17
2023-08-20T01:20:59.287Z,18.16
2023-08-20T01:21:04.340Z,18.16
2023-08-20T01:21:09.407Z,18.13
2023-08-20T01:21:14.482Z,18.13
2023-08-20T01:21:34.682Z,18.19
2023-08-20T01:21:54.905Z,18.13
2023-08-20T01:21:59.985Z,18.14
2023-08-20T01:22:05.062Z,18.16
2023-08-20T01:22:10.135Z,18.17
2023-08-20T01:22:15.231Z,18.14
2023-08-20T01:22:35.411Z,18.17
2023-08-20T01:22:55.579Z,18.14
2023-08-20T01:23:00.661Z,18.14
2023-08-20T01:23:05.787Z,18.13
2023-08-20T01:23:10.851Z,18.13
2023-08-20T01:23:15.938Z,18.16
2023-08-20T01:23:36.125Z,18.13
2023-08-20T01:23:56.267Z,18.11
2023-08-20T01:24:01.343Z,18.11
2023-08-20T01:24:06.425Z,18.10
2023-08-20T01:24:11.484Z,18.13
2023-08-20T01:24:16.561Z,18.13
2023-08-20T01:24:36.717Z,18.14
2023-08-20T01:24:57.638Z,18.13
2023-08-20T01:25:02.718Z,18.09
2023-08-20T01:25:14.716Z,18.10
2023-08-20T01:25:19.793Z,18.10
2023-08-20T01:25:24.853Z,18.09
2023-08-20T01:25:30.073Z,18.11
2023-08-20T01:25:35.124Z,18.07
2023-08-20T01:25:40.185Z,18.10
2023-08-20T01:26:15.478Z,18.09
2023-08-20T01:26:20.547Z,18.11
2023-08-20T01:26:25.629Z,18.11
2023-08-20T01:26:30.695Z,18.11
2023-08-20T01:26:35.778Z,18.09
2023-08-20T01:26:40.929Z,18.07
2023-08-20T01:27:16.236Z,18.07
2023-08-20T01:27:21.303Z,18.07
2023-08-20T01:27:26.375Z,18.09
2023-08-20T01:27:31.456Z,18.09
2023-08-20T01:27:36.746Z,18.05
2023-08-20T01:27:42.028Z,18.09
2023-08-20T01:28:17.291Z,18.07
2023-08-20T01:28:22.351Z,18.09
2023-08-20T01:28:27.452Z,18.09
2023-08-20T01:28:32.525Z,18.11
2023-08-20T01:28:37.613Z,18.09
2023-08-20T01:28:42.666Z,18.09
2023-08-20T01:29:17.938Z,18.10
2023-08-20T01:29:23.032Z,18.05
2023-08-20T01:29:28.190Z,18.10
2023-08-20T01:29:33.251Z,18.05
2023-08-20T01:29:38.320Z,18.04
2023-08-20T01:29:43.383Z,18.07
2023-08-20T01:30:18.651Z,18.07
2023-08-20T01:30:23.710Z,18.11
2023-08-20T01:30:28.801Z,18.07
2023-08-20T01:30:33.864Z,18.05
2023-08-20T01:30:38.978Z,18.09
2023-08-20T01:30:44.060Z,18.09
2023-08-20T01:31:19.382Z,18.07
2023-08-20T01:31:24.446Z,18.09
2023-08-20T01:31:29.667Z,18.09
2023-08-20T01:31:34.875Z,18.04
2023-08-20T01:31:39.997Z,18.04
2023-08-20T01:31:45.075Z,18.05
2023-08-20T01:32:20.359Z,18.05
2023-08-20T01:32:25.418Z,18.05
2023-08-20T01:32:30.521Z,18.04
2023-08-20T01:32:35.632Z,18.07
2023-08-20T01:32:40.756Z,18.05
2023-08-20T01:32:45.875Z,18.07
2023-08-20T01:33:21.101Z,18.05
2023-08-20T01:33:26.214Z,18.07
2023-08-20T01:33:31.273Z,18.02
2023-08-20T01:33:36.333Z,18.02
2023-08-20T01:33:41.405Z,18.04
2023-08-20T01:33:46.506Z,18.07
2023-08-20T01:34:21.767Z,18.05
2023-08-20T01:34:26.937Z,18.01
2023-08-20T01:34:32.004Z,18.04
2023-08-20T01:34:37.091Z,18.05
2023-08-20T01:34:42.137Z,18.01
2023-08-20T01:34:47.215Z,18.02
2023-08-20T01:35:22.527Z,18.01
2023-08-20T01:35:27.594Z,18.02
2023-08-20T01:35:32.666Z,18.01
2023-08-20T01:35:37.734Z,18.02
2023-08-20T01:35:42.817Z,18.01
2023-08-20T01:35:47.887Z,17.99
2023-08-20T01:36:23.209Z,17.99
2023-08-20T01:36:28.293Z,17.99
2023-08-20T01:36:33.343Z,18.02
2023-08-20T01:36:38.426Z,18.04
2023-08-20T01:36:43.486Z,18.01
2023-08-20T01:36:48.549Z,17.99
2023-08-20T01:37:23.807Z,18.01
2023-08-20T01:37:28.865Z,18.01
2023-08-20T01:37:34.214Z,18.01
2023-08-20T01:37:39.480Z,18.01
2023-08-20T01:37:44.560Z,18.01
2023-08-20T01:37:49.627Z,17.98
2023-08-20T01:38:24.942Z,17.96
2023-08-20T01:38:29.997Z,17.99
2023-08-20T01:38:35.099Z,17.96
2023-08-20T01:38:40.163Z,17.98
2023-08-20T01:38:45.248Z,17.98
2023-08-20T01:38:50.323Z,17.96
2023-08-20T01:39:25.572Z,17.96
2023-08-20T01:39:30.643Z,17.98
2023-08-20T01:39:35.713Z,17.96
2023-08-20T01:39:40.792Z,17.99
2023-08-20T01:39:45.857Z,17.95
2023-08-20T01:39:50.914Z,17.95
2023-08-20T01:40:26.170Z,17.96
2023-08-20T01:40:31.248Z,17.95
2023-08-20T01:40:36.323Z,17.95
2023-08-20T01:40:41.388Z,17.95
2023-08-20T01:40:46.449Z,17.96
2023-08-20T01:40:51.522Z,17.96
2023-08-20T01:41:26.795Z,17.95
2023-08-20T01:41:31.865Z,17.91
2023-08-20T01:41:36.925Z,17.92
2023-08-20T01:41:41.992Z,17.95
2023-08-20T01:41:47.072Z,17.92
2023-08-20T01:41:52.162Z,17.95
2023-08-20T01:42:27.496Z,17.94
2023-08-20T01:42:32.557Z,17.94
2023-08-20T01:42:37.644Z,17.92
2023-08-20T01:42:42.720Z,17.96
2023-08-20T01:42:47.788Z,17.95
2023-08-20T01:42:52.866Z,17.95
2023-08-20T01:43:28.209Z,17.95
2023-08-20T01:43:33.284Z,17.95
2023-08-20T01:43:38.378Z,17.94
2023-08-20T01:43:43.440Z,17.94
2023-08-20T01:43:48.509Z,17.94
2023-08-20T01:43:53.576Z,17.96
2023-08-20T01:44:28.879Z,17.94
2023-08-20T01:44:33.960Z,17.94
2023-08-20T01:44:39.031Z,17.95
2023-08-20T01:44:44.127Z,17.92
2023-08-20T01:44:49.182Z,17.98
2023-08-20T01:44:54.250Z,17.94
2023-08-20T01:45:29.578Z,17.92
2023-08-20T01:45:34.645Z,17.95
2023-08-20T01:45:39.731Z,17.92
2023-08-20T01:45:44.791Z,17.96
2023-08-20T01:45:49.853Z,17.94
2023-08-20T01:45:54.922Z,17.92
2023-08-20T01:46:30.186Z,17.94
2023-08-20T01:46:35.248Z,17.95
2023-08-20T01:46:40.373Z,17.95
2023-08-20T01:46:45.458Z,17.96
2023-08-20T01:46:50.528Z,17.92
2023-08-20T01:46:55.769Z,17.95
2023-08-20T01:47:31.152Z,17.91
2023-08-20T01:47:36.516Z,17.94
2023-08-20T01:47:41.742Z,17.94
2023-08-20T01:47:46.846Z,17.91
2023-08-20T01:47:51.941Z,17.95
2023-08-20T01:47:57.792Z,17.94
2023-08-20T01:48:33.128Z,17.95
2023-08-20T01:48:38.221Z,17.94
2023-08-20T01:48:43.301Z,17.94
2023-08-20T01:48:48.386Z,17.95
2023-08-20T01:48:53.452Z,17.95
2023-08-20T01:48:58.538Z,17.92
2023-08-20T01:49:33.930Z,17.95
2023-08-20T01:49:38.998Z,17.96
2023-08-20T01:49:44.081Z,17.95
2023-08-20T01:49:49.155Z,17.92
2023-08-20T01:49:54.230Z,17.96
2023-08-20T01:49:59.294Z,17.96
2023-08-20T01:50:34.577Z,17.96
2023-08-20T01:50:39.646Z,17.95
2023-08-20T01:50:44.707Z,17.94
2023-08-20T01:50:49.795Z,17.96
2023-08-20T01:50:54.850Z,17.95
2023-08-20T01:50:59.937Z,17.96
2023-08-20T01:51:35.262Z,17.92
2023-08-20T01:51:40.351Z,17.96
2023-08-20T01:51:45.409Z,17.95
2023-08-20T01:51:50.481Z,17.96
2023-08-20T01:51:55.555Z,17.95
2023-08-20T01:52:00.626Z,17.95
2023-08-20T01:52:35.933Z,17.98
2023-08-20T01:52:40.980Z,17.94
2023-08-20T01:52:46.044Z,17.95
2023-08-20T01:52:51.113Z,17.96
2023-08-20T01:52:56.230Z,17.95
2023-08-20T01:53:01.319Z,17.94
2023-08-20T01:53:36.564Z,17.94
2023-08-20T01:53:41.649Z,17.95
2023-08-20T01:53:46.724Z,17.95
2023-08-20T01:53:51.793Z,17.94
2023-08-20T01:53:57.602Z,17.92
2023-08-20T01:54:02.676Z,17.95
2023-08-20T01:54:38.011Z,17.92
2023-08-20T01:54:43.087Z,17.92
2023-08-20T01:54:48.167Z,17.91
2023-08-20T01:54:53.244Z,17.94
2023-08-20T01:54:58.318Z,17.89
2023-08-20T01:55:03.386Z,17.92
2023-08-20T01:55:38.740Z,17.89
2023-08-20T01:55:43.812Z,17.87
2023-08-20T01:55:48.891Z,17.91
2023-08-20T01:55:53.952Z,17.95
2023-08-20T01:55:59.026Z,17.89
2023-08-20T01:56:04.099Z,17.91
2023-08-20T01:56:39.408Z,17.91
2023-08-20T01:56:44.479Z,17.89
2023-08-20T01:56:49.542Z,17.92
2023-08-20T01:56:54.618Z,17.91
2023-08-20T01:56:59.678Z,17.91
2023-08-20T01:57:04.742Z,17.87
2023-08-20T01:57:39.992Z,17.87
2023-08-20T01:57:45.123Z,17.91
2023-08-20T01:57:50.187Z,17.91
2023-08-20T01:57:55.289Z,17.87
2023-08-20T01:58:00.370Z,17.87
2023-08-20T01:58:05.446Z,17.86
2023-08-20T01:58:40.746Z,17.87
2023-08-20T01:58:45.817Z,17.87
2023-08-20T01:58:50.897Z,17.86
2023-08-20T01:58:56.058Z,17.87
2023-08-20T01:59:01.121Z,17.87
2023-08-20T01:59:06.217Z,17.86
2023-08-20T01:59:41.461Z,17.86
2023-08-20T01:59:46.551Z,17.86
2023-08-20T01:59:51.600Z,17.87
2023-08-20T01:59:56.674Z,17.89
2023-08-20T02:00:01.743Z,17.84
2023-08-20T02:00:06.821Z,17.89
2023-08-20T02:00:42.338Z,17.87
2023-08-20T02:00:47.433Z,17.86
2023-08-20T02:00:52.619Z,17.86
2023-08-20T02:00:57.751Z,17.86
2023-08-20T02:01:02.898Z,17.86
2023-08-20T02:01:08.031Z,17.91
2023-08-20T02:01:43.410Z,17.86
2023-08-20T02:01:48.492Z,17.86
2023-08-20T02:01:53.570Z,17.86
2023-08-20T02:01:58.679Z,17.87
2023-08-20T02:02:03.785Z,17.86
2023-08-20T02:02:08.843Z,17.84
2023-08-20T02:02:44.228Z,17.86
2023-08-20T02:02:49.351Z,17.87
2023-08-20T02:02:54.484Z,17.86
2023-08-20T02:02:59.604Z,17.84
2023-08-20T02:03:04.687Z,17.91
2023-08-20T02:03:09.805Z,17.89
2023-08-20T02:03:45.079Z,17.87
2023-08-20T02:03:50.148Z,17.87
2023-08-20T02:03:55.257Z,17.86
2023-08-20T02:04:00.364Z,17.86
2023-08-20T02:04:05.465Z,17.87
2023-08-20T02:04:10.574Z,17.84
2023-08-20T02:04:45.824Z,17.86
2023-08-20T02:04:50.935Z,17.86
2023-08-20T02:04:56.077Z,17.83
2023-08-20T02:05:01.168Z,17.87
2023-08-20T02:05:06.264Z,17.87
2023-08-20T02:05:11.348Z,17.84
2023-08-20T02:05:46.692Z,17.83
2023-08-20T02:05:51.810Z,17.83
2023-08-20T02:05:57.625Z,17.84
2023-08-20T02:06:02.686Z,17.83
2023-08-20T02:06:07.883Z,17.84
2023-08-20T02:06:12.942Z,17.81
2023-08-20T02:06:49.025Z,17.83
2023-08-20T02:06:54.090Z,17.81
2023-08-20T02:06:59.160Z,17.80
2023-08-20T02:07:04.221Z,17.83
2023-08-20T02:07:09.282Z,17.84
2023-08-20T02:07:14.365Z,17.83
2023-08-20T02:07:49.686Z,17.81
2023-08-20T02:07:54.761Z,17.83
2023-08-20T02:07:59.854Z,17.83
2023-08-20T02:08:04.920Z,17.81
2023-08-20T02:08:10.834Z,17.80
2023-08-20T02:08:15.892Z,17.81
2023-08-20T02:08:51.180Z,17.80
2023-08-20T02:08:56.267Z,17.83
2023-08-20T02:09:01.355Z,17.81
2023-08-20T02:09:06.419Z,17.84
2023-08-20T02:09:11.527Z,17.81
2023-08-20T02:09:16.593Z,17.81
2023-08-20T02:09:51.836Z,17.83
2023-08-20T02:09:56.995Z,17.79
2023-08-20T02:10:02.122Z,17.79
2023-08-20T02:10:07.185Z,17.81
2023-08-20T02:10:12.247Z,17.84
2023-08-20T02:10:17.309Z,17.77
2023-08-20T02:10:52.621Z,17.77